createdAt,value
2022-11-21T00:00:22.620Z,99931.19
2022-11-21T00:05:44.189Z,99929.08
2022-11-21T00:10:50.152Z,99925.73
2022-11-21T00:15:56.097Z,99932.95
2022-11-21T00:21:07.392Z,99933.32
2022-11-21T00:26:14.893Z,99929.64
2022-11-21T00:31:22.642Z,99925.00
2022-11-21T00:36:28.277Z,99926.77
2022-11-21T00:41:34.244Z,99930.54
2022-11-21T00:46:39.900Z,99927.57
2022-11-21T00:51:45.733Z,99921.60
2022-11-21T00:56:51.572Z,99914.80
2022-11-21T01:01:57.331Z,99911.25
2022-11-21T01:07:03.497Z,99903.73
2022-11-21T01:12:09.523Z,99894.78
2022-11-21T01:17:15.484Z,99884.16
2022-11-21T01:22:21.128Z,99882.75
2022-11-21T01:27:26.867Z,99876.25
2022-11-21T01:32:32.705Z,99872.45
2022-11-21T01:37:38.368Z,99874.67
2022-11-21T01:42:54.022Z,99876.52
2022-11-21T01:47:59.791Z,99875.16
2022-11-21T01:53:05.731Z,99876.45
2022-11-21T01:58:12.405Z,99880.58
2022-11-21T02:03:24.036Z,99879.38
2022-11-21T02:08:30.648Z,99876.19
2022-11-21T02:13:36.361Z,99873.23
2022-11-21T02:18:42.203Z,99869.59
2022-11-21T02:24:00.219Z,99860.38
2022-11-21T02:29:06.457Z,99861.80
2022-11-21T02:34:12.283Z,99861.59
2022-11-21T02:39:26.196Z,99862.17
2022-11-21T02:44:38.585Z,99872.69
2022-11-21T02:49:50.824Z,99881.03
2022-11-21T02:54:56.434Z,99882.27
2022-11-21T03:00:02.279Z,99883.58
2022-11-21T03:05:10.720Z,99887.17
2022-11-21T03:10:17.358Z,99886.00
2022-11-21T03:15:23.061Z,99892.10
2022-11-21T03:20:28.696Z,99898.96
2022-11-21T03:25:34.416Z,99902.33
2022-11-21T03:30:40.008Z,99906.54
2022-11-21T03:35:45.621Z,99924.16
2022-11-21T03:40:51.311Z,99920.16
2022-11-21T03:45:57.536Z,99916.98
2022-11-21T03:51:03.206Z,99915.86
2022-11-21T03:56:08.960Z,99914.15
2022-11-21T04:01:15.774Z,99915.21
2022-11-21T04:06:22.822Z,99912.69
2022-11-21T04:11:28.566Z,99908.09
2022-11-21T04:16:34.183Z,99905.40
2022-11-21T04:21:40.115Z,99904.45
2022-11-21T04:26:46.004Z,99906.39
2022-11-21T04:31:51.720Z,99900.29
2022-11-21T04:36:58.047Z,99892.13
2022-11-21T04:42:03.880Z,99893.78
2022-11-21T04:47:09.679Z,99895.99
2022-11-21T04:52:15.469Z,99888.45
2022-11-21T04:57:21.781Z,99888.89
2022-11-21T05:02:27.407Z,99887.80
2022-11-21T05:07:33.084Z,99886.13
2022-11-21T05:12:57.611Z,99882.57
2022-11-21T05:18:03.389Z,99882.35
2022-11-21T05:23:09.088Z,99879.64
2022-11-21T05:28:14.996Z,99880.83
2022-11-21T05:33:20.668Z,99881.81
2022-11-21T05:38:26.419Z,99885.48
2022-11-21T05:43:47.546Z,99884.63
2022-11-21T05:48:54.564Z,99891.13
2022-11-21T05:54:01.288Z,99892.61
2022-11-21T05:59:08.484Z,99891.78
2022-11-21T06:04:14.229Z,99892.03
2022-11-21T06:09:19.829Z,99888.27
2022-11-21T06:14:25.604Z,99887.23
2022-11-21T06:19:31.422Z,99888.81
2022-11-21T06:24:37.209Z,99884.88
2022-11-21T06:29:43.023Z,99880.80
2022-11-21T06:34:48.648Z,99882.60
2022-11-21T06:39:54.267Z,99884.01
2022-11-21T06:44:59.868Z,99887.23
2022-11-21T06:50:06.304Z,99883.85
2022-11-21T06:55:13.309Z,99885.85
2022-11-21T07:00:21.081Z,99885.84
2022-11-21T07:05:26.848Z,99888.00
2022-11-21T07:10:32.673Z,99896.35
2022-11-21T07:15:38.244Z,99895.34
2022-11-21T07:20:43.993Z,99897.34
2022-11-21T07:25:49.897Z,99883.88
2022-11-21T07:30:58.183Z,99871.08
2022-11-21T07:36:04.032Z,99861.34
2022-11-21T07:41:10.268Z,99861.39
2022-11-21T07:46:16.043Z,99851.73
2022-11-21T07:51:21.904Z,99856.23
2022-11-21T07:56:27.771Z,99852.02
2022-11-21T08:01:33.988Z,99853.52
2022-11-21T08:06:39.603Z,99854.64
2022-11-21T08:11:45.176Z,99855.13
2022-11-21T08:16:53.320Z,99863.54
2022-11-21T08:21:59.514Z,99867.30
2022-11-21T08:27:05.578Z,99872.66
2022-11-21T08:32:11.393Z,99871.67
2022-11-21T08:37:17.194Z,99864.05
2022-11-21T08:42:22.877Z,99866.86
2022-11-21T08:47:28.704Z,99863.83
2022-11-21T08:52:34.422Z,99861.98
2022-11-21T08:57:40.769Z,99866.84
2022-11-21T09:02:46.464Z,99864.02
2022-11-21T09:07:57.777Z,99855.91
2022-11-21T09:13:03.620Z,99846.04
2022-11-21T09:18:10.716Z,99841.73
2022-11-21T09:23:17.842Z,99841.30
2022-11-21T09:28:23.710Z,99844.91
2022-11-21T09:33:29.461Z,99836.31
2022-11-21T09:38:35.073Z,99825.66
2022-11-21T09:43:55.634Z,99819.48
2022-11-21T09:49:05.402Z,99820.73
2022-11-21T09:54:20.416Z,99819.80
2022-11-21T09:59:34.232Z,99814.18
2022-11-21T10:04:40.110Z,99802.88
2022-11-21T10:10:02.395Z,99795.45
2022-11-21T10:15:25.225Z,99783.59
2022-11-21T10:20:48.693Z,99776.30
2022-11-21T10:26:02.418Z,99774.73
2022-11-21T10:31:11.492Z,99774.06
2022-11-21T10:36:25.864Z,99771.23
2022-11-21T10:41:44.671Z,99765.70
2022-11-21T10:46:57.983Z,99763.89
2022-11-21T10:52:11.441Z,99754.34
2022-11-21T10:57:19.689Z,99756.16
2022-11-21T11:02:26.594Z,99755.42
2022-11-21T11:07:32.592Z,99765.33
2022-11-21T11:12:57.364Z,99768.66
2022-11-21T11:18:09.385Z,99771.60
2022-11-21T11:23:26.282Z,99768.70
2022-11-21T11:28:37.784Z,99766.13
2022-11-21T11:33:52.779Z,99767.02
2022-11-21T11:39:00.114Z,99774.05
2022-11-21T11:44:33.212Z,99771.50
2022-11-21T11:50:15.721Z,99766.83
2022-11-21T11:55:29.888Z,99762.61
2022-11-21T12:00:46.708Z,99756.73
2022-11-21T12:06:01.629Z,99754.20
2022-11-21T12:11:37.629Z,99750.66
2022-11-21T12:16:43.826Z,99746.04
2022-11-21T12:21:49.534Z,99738.53
2022-11-21T12:27:04.271Z,99734.85
2022-11-21T12:32:28.605Z,99728.91
2022-11-21T12:37:48.173Z,99719.85
2022-11-21T12:43:07.856Z,99720.98
2022-11-21T12:48:59.319Z,99713.69
2022-11-21T12:54:31.808Z,99700.57
2022-11-21T12:59:49.516Z,99695.55
2022-11-21T13:04:57.723Z,99700.11
2022-11-21T13:10:05.119Z,99700.02
2022-11-21T13:15:24.628Z,99692.52
2022-11-21T13:20:37.578Z,99691.21
2022-11-21T13:25:47.974Z,99675.85
2022-11-21T13:30:55.272Z,99669.75
2022-11-21T13:36:02.650Z,99667.06
2022-11-21T13:41:27.922Z,99668.80
2022-11-21T13:47:00.378Z,99667.25
2022-11-21T13:52:11.500Z,99667.63
2022-11-21T13:57:36.382Z,99668.16
2022-11-21T14:03:03.048Z,99669.38
2022-11-21T14:08:19.546Z,99669.04
2022-11-21T14:13:30.470Z,99669.74
2022-11-21T14:18:38.347Z,99666.66
2022-11-21T14:23:47.149Z,99667.17
2022-11-21T14:28:53.061Z,99671.11
2022-11-21T14:33:59.244Z,99669.23
2022-11-21T14:44:35.886Z,99660.34
2022-11-21T14:49:48.596Z,99665.80
2022-11-21T14:55:28.599Z,99670.44
2022-11-21T15:06:04.569Z,99677.61
2022-11-21T15:11:12.703Z,99678.63
2022-11-21T15:16:18.722Z,99671.77
2022-11-21T15:21:24.724Z,99671.08
2022-11-21T15:26:33.177Z,99677.75
2022-11-21T15:31:38.966Z,99673.98
2022-11-21T15:36:45.003Z,99670.20
2022-11-21T15:41:50.656Z,99670.00
2022-11-21T15:46:56.432Z,99667.10
2022-11-21T15:52:10.226Z,99665.23
2022-11-21T15:57:17.414Z,99669.66
2022-11-21T16:02:23.646Z,99667.27
2022-11-21T16:07:29.902Z,99671.70
2022-11-21T16:12:35.918Z,99668.27
2022-11-21T16:17:41.762Z,99669.48
2022-11-21T16:22:48.218Z,99669.64
2022-11-21T16:27:55.977Z,99671.33
2022-11-21T16:33:04.138Z,99667.38
2022-11-21T16:38:10.426Z,99668.21
2022-11-21T16:43:16.203Z,99671.81
2022-11-21T16:48:23.530Z,99673.85
2022-11-21T16:53:31.936Z,99668.55
2022-11-21T16:58:40.494Z,99661.18
2022-11-21T17:03:48.137Z,99660.84
2022-11-21T17:08:54.385Z,99658.80
2022-11-21T17:14:04.612Z,99662.91
2022-11-21T17:19:12.567Z,99662.23
2022-11-21T17:24:18.526Z,99652.48
2022-11-21T17:29:24.396Z,99653.01
2022-11-21T17:34:33.276Z,99652.34
2022-11-21T17:39:39.262Z,99650.14
2022-11-21T17:44:45.056Z,99647.06
2022-11-21T17:49:50.858Z,99649.80
2022-11-21T17:54:56.621Z,99647.77
2022-11-21T18:00:02.526Z,99649.48
2022-11-21T18:05:10.512Z,99646.25
2022-11-21T18:10:41.654Z,99643.33
2022-11-21T18:15:43.130Z,99642.83
2022-11-21T18:20:49.544Z,99646.77
2022-11-21T18:25:55.193Z,99643.54
2022-11-21T18:31:09.106Z,99643.54
2022-11-21T18:36:15.136Z,99649.19
2022-11-21T18:41:22.592Z,99646.45
2022-11-21T18:46:30.378Z,99647.48
2022-11-21T18:51:36.925Z,99648.86
2022-11-21T18:56:42.735Z,99647.14
2022-11-21T19:01:49.919Z,99645.27
2022-11-21T19:06:56.732Z,99644.93
2022-11-21T19:12:02.409Z,99650.39
2022-11-21T19:17:08.538Z,99655.70
2022-11-21T19:22:14.545Z,99657.76
2022-11-21T19:27:24.361Z,99658.95
2022-11-21T19:32:34.089Z,99661.87
2022-11-21T19:37:39.870Z,99661.52
2022-11-21T19:42:45.779Z,99661.88
2022-11-21T19:47:57.117Z,99662.39
2022-11-21T19:53:02.866Z,99662.21
2022-11-21T19:58:08.544Z,99667.52
2022-11-21T20:03:14.238Z,99670.09
2022-11-21T20:08:19.979Z,99673.00
2022-11-21T20:13:25.768Z,99675.73
2022-11-21T20:18:31.852Z,99679.85
2022-11-21T20:23:37.669Z,99685.85
2022-11-21T20:28:43.751Z,99690.98
2022-11-21T20:33:51.536Z,99695.95
2022-11-21T20:38:58.793Z,99697.48
2022-11-21T20:49:33.616Z,99694.39
2022-11-21T20:54:39.512Z,99695.08
2022-11-21T20:59:45.298Z,99695.95
2022-11-21T21:04:51.089Z,99692.52
2022-11-21T21:09:57.123Z,99691.33
2022-11-21T21:15:02.884Z,99694.21
2022-11-21T21:20:11.188Z,99698.84
2022-11-21T21:25:17.222Z,99702.59
2022-11-21T21:30:22.984Z,99701.58
2022-11-21T21:35:28.694Z,99703.45
2022-11-21T21:40:34.498Z,99700.55
2022-11-21T21:45:40.322Z,99704.81
2022-11-21T21:50:46.206Z,99708.92
2022-11-21T21:55:51.923Z,99711.84
2022-11-21T22:01:05.152Z,99710.30
2022-11-21T22:06:13.170Z,99710.98
2022-11-21T22:11:20.286Z,99716.30
2022-11-21T22:16:27.067Z,99711.33
2022-11-21T22:21:35.345Z,99708.41
2022-11-21T22:26:41.261Z,99711.31
2022-11-21T22:31:47.113Z,99703.11
2022-11-21T22:36:52.938Z,99702.09
2022-11-21T22:42:00.059Z,99707.40
2022-11-21T22:47:06.100Z,99712.02
2022-11-21T22:52:12.244Z,99717.16
2022-11-21T22:57:19.169Z,99715.62
2022-11-21T23:02:24.874Z,99711.15
2022-11-21T23:07:31.817Z,99709.98
2022-11-21T23:12:38.078Z,99717.15
2022-11-21T23:17:47.189Z,99719.73
2022-11-21T23:22:59.102Z,99720.25
2022-11-21T23:28:05.194Z,99718.19
2022-11-21T23:33:11.240Z,99724.34
2022-11-21T23:38:18.168Z,99724.34
2022-11-21T23:43:24.024Z,99717.68
2022-11-21T23:48:30.224Z,99713.56
2022-11-21T23:53:36.306Z,99708.92
2022-11-21T23:58:42.037Z,99706.70
